createdAt,value
2019-03-30T00:00:58.392Z,32.23
2019-03-30T00:03:28.442Z,30.23
2019-03-30T00:05:58.458Z,30.70
2019-03-30T00:08:28.523Z,40.60
2019-03-30T00:10:58.556Z,27.37
2019-03-30T00:13:28.525Z,35.13
2019-03-30T00:15:58.444Z,33.77
2019-03-30T00:18:28.486Z,28.90
2019-03-30T00:20:58.580Z,29.73
2019-03-30T00:23:28.625Z,29.43
2019-03-30T00:25:58.679Z,37.97
2019-03-30T00:28:28.689Z,30.37
2019-03-30T00:30:58.867Z,24.53
2019-03-30T00:33:28.879Z,42.13
2019-03-30T00:35:58.911Z,21.93
2019-03-30T00:38:28.887Z,23.10
2019-03-30T00:40:58.997Z,24.60
2019-03-30T00:43:28.998Z,25.80
2019-03-30T00:45:59.053Z,26.33
2019-03-30T00:48:29.014Z,15.80
2019-03-30T00:50:59.112Z,14.83
2019-03-30T00:53:29.076Z,13.70
2019-03-30T00:55:59.113Z,15.30
2019-03-30T00:58:29.181Z,11.00
2019-03-30T01:00:59.290Z,15.47
2019-03-30T01:03:29.911Z,23.93
2019-03-30T01:05:59.910Z,10.07
2019-03-30T01:08:29.911Z,18.10
2019-03-30T01:11:00.085Z,23.23
2019-03-30T01:13:30.209Z,18.23
2019-03-30T01:16:00.169Z,16.10
2019-03-30T01:18:30.206Z,16.77
2019-03-30T01:21:00.219Z,13.27
2019-03-30T01:23:30.202Z,13.10
2019-03-30T01:26:00.267Z,15.17
2019-03-30T01:28:30.183Z,18.33
2019-03-30T01:31:00.594Z,14.57
2019-03-30T01:33:30.815Z,11.13
2019-03-30T01:36:00.801Z,12.70
2019-03-30T01:38:30.798Z,19.13
2019-03-30T01:41:00.778Z,17.53
2019-03-30T01:43:30.817Z,17.10
2019-03-30T01:46:00.837Z,16.13
2019-03-30T01:48:30.908Z,16.40
2019-03-30T01:51:00.898Z,20.80
2019-03-30T01:53:30.885Z,11.80
2019-03-30T01:56:00.847Z,14.43
2019-03-30T01:58:30.875Z,20.83
2019-03-30T02:01:01.034Z,19.63
2019-03-30T02:03:30.962Z,14.67
2019-03-30T02:06:00.958Z,15.87
2019-03-30T02:08:30.946Z,17.57
2019-03-30T02:11:00.941Z,12.77
2019-03-30T02:13:30.948Z,14.10
2019-03-30T02:16:00.998Z,17.50
2019-03-30T02:18:31.309Z,16.63
2019-03-30T02:21:01.294Z,14.47
2019-03-30T02:23:32.508Z,13.80
2019-03-30T02:26:02.563Z,16.60
2019-03-30T02:28:32.576Z,19.53
2019-03-30T02:31:02.959Z,12.83
2019-03-30T02:33:33.011Z,13.40
2019-03-30T02:36:03.395Z,14.83
2019-03-30T02:38:33.419Z,17.77
2019-03-30T02:41:03.485Z,15.73
2019-03-30T02:43:33.542Z,17.57
2019-03-30T02:46:03.603Z,16.73
2019-03-30T02:48:33.580Z,20.87
2019-03-30T02:51:03.564Z,13.63
2019-03-30T02:53:33.602Z,11.10
2019-03-30T02:56:03.855Z,16.67
2019-03-30T02:58:33.952Z,15.10
2019-03-30T03:01:04.281Z,20.30
2019-03-30T03:03:34.344Z,12.93
2019-03-30T03:06:04.417Z,20.03
2019-03-30T03:08:34.384Z,20.40
2019-03-30T03:11:04.439Z,13.23
2019-03-30T03:13:34.390Z,16.57
2019-03-30T03:16:04.355Z,14.67
2019-03-30T03:18:34.635Z,18.47
2019-03-30T03:21:07.985Z,12.23
2019-03-30T03:23:36.244Z,11.90
2019-03-30T03:26:06.164Z,16.13
2019-03-30T03:28:36.186Z,15.13
2019-03-30T03:31:06.210Z,12.43
2019-03-30T03:33:36.198Z,17.90
2019-03-30T03:36:06.198Z,20.70
2019-03-30T03:38:36.150Z,15.73
2019-03-30T03:41:06.250Z,12.00
2019-03-30T03:43:36.352Z,13.93
2019-03-30T03:46:06.342Z,15.57
2019-03-30T03:48:36.311Z,14.20
2019-03-30T03:51:24.499Z,14.33
2019-03-30T03:53:38.992Z,14.73
2019-03-30T03:56:10.254Z,20.27
2019-03-30T03:58:43.447Z,12.10
2019-03-30T04:01:15.586Z,13.60
2019-03-30T04:03:47.121Z,17.97
2019-03-30T04:06:19.057Z,14.63
2019-03-30T04:08:51.025Z,20.83
2019-03-30T04:11:23.281Z,16.80
2019-03-30T04:13:54.861Z,16.10
2019-03-30T04:16:24.967Z,11.93
2019-03-30T04:18:54.922Z,13.37
2019-03-30T04:21:42.385Z,14.63
2019-03-30T04:23:56.583Z,15.60
2019-03-30T04:26:26.580Z,16.13
2019-03-30T04:28:56.482Z,16.13
2019-03-30T04:31:26.479Z,23.33
2019-03-30T04:33:56.533Z,15.53
2019-03-30T04:36:26.490Z,14.57
2019-03-30T04:38:56.461Z,15.67
2019-03-30T04:41:26.456Z,15.77
2019-03-30T04:43:56.403Z,17.40
2019-03-30T04:46:26.404Z,14.17
2019-03-30T04:48:56.410Z,17.63
2019-03-30T04:51:26.440Z,16.07
2019-03-30T04:53:56.384Z,16.27
2019-03-30T04:56:26.337Z,21.17
2019-03-30T04:58:56.425Z,14.50
2019-03-30T05:01:26.411Z,12.77
2019-03-30T05:03:56.390Z,17.13
2019-03-30T05:06:26.463Z,19.90
2019-03-30T05:08:56.442Z,16.33
2019-03-30T05:11:26.454Z,20.97
2019-03-30T05:13:56.537Z,24.13
2019-03-30T05:16:26.521Z,13.97
2019-03-30T05:18:56.485Z,17.27
2019-03-30T05:21:26.551Z,15.30
2019-03-30T05:23:56.767Z,19.80
2019-03-30T05:26:26.922Z,13.90
2019-03-30T05:28:57.010Z,16.77
2019-03-30T05:31:27.088Z,18.23
2019-03-30T05:33:57.085Z,19.70
2019-03-30T05:36:27.062Z,14.90
2019-03-30T05:38:57.214Z,16.10
2019-03-30T05:41:27.502Z,19.33
2019-03-30T05:43:57.517Z,17.40
2019-03-30T05:46:27.513Z,13.77
2019-03-30T05:48:57.605Z,19.57
2019-03-30T05:51:27.669Z,17.90
2019-03-30T05:53:58.058Z,17.03
2019-03-30T05:56:28.063Z,11.40
2019-03-30T05:58:58.174Z,20.10
2019-03-30T06:01:28.378Z,20.93
2019-03-30T06:03:58.366Z,14.13
2019-03-30T06:06:28.415Z,18.03
2019-03-30T06:08:58.411Z,20.13
2019-03-30T06:11:28.491Z,18.27
2019-03-30T06:13:58.445Z,17.50
2019-03-30T06:16:28.455Z,17.53
2019-03-30T06:18:58.441Z,17.63
2019-03-30T06:21:28.383Z,23.03
2019-03-30T06:23:58.451Z,12.47
2019-03-30T06:26:28.752Z,19.10
2019-03-30T06:28:58.827Z,16.27
2019-03-30T06:31:28.839Z,15.37
2019-03-30T06:33:58.738Z,17.80
2019-03-30T06:36:28.785Z,16.33
2019-03-30T06:38:59.404Z,16.93
2019-03-30T06:41:29.504Z,27.73
2019-03-30T06:43:59.483Z,25.40
2019-03-30T06:46:29.562Z,33.13
2019-03-30T06:49:00.352Z,16.00
2019-03-30T06:51:30.358Z,15.23
2019-03-30T06:54:00.399Z,19.23
2019-03-30T06:56:30.375Z,14.27
2019-03-30T06:59:00.313Z,16.20
2019-03-30T07:01:31.121Z,15.07
2019-03-30T07:04:01.130Z,15.83
2019-03-30T07:06:31.501Z,15.13
2019-03-30T07:09:03.968Z,14.90
2019-03-30T07:11:37.718Z,17.00
2019-03-30T07:14:07.784Z,14.87
2019-03-30T07:16:39.154Z,17.83
2019-03-30T07:19:09.318Z,22.13
2019-03-30T07:21:39.313Z,23.00
2019-03-30T07:24:09.749Z,18.40
2019-03-30T07:26:39.799Z,15.40
2019-03-30T07:29:09.847Z,15.87
2019-03-30T07:31:39.953Z,26.30
2019-03-30T07:34:10.023Z,13.90
2019-03-30T07:36:40.078Z,19.73
2019-03-30T07:39:10.138Z,21.90
2019-03-30T07:41:40.118Z,14.80
2019-03-30T07:44:10.445Z,16.90
2019-03-30T07:46:40.546Z,16.70
2019-03-30T07:49:10.478Z,14.43
2019-03-30T07:51:40.561Z,20.53
2019-03-30T07:54:10.562Z,19.70
2019-03-30T07:56:40.536Z,30.10
2019-03-30T07:59:10.579Z,16.60
2019-03-30T08:01:40.585Z,20.43
2019-03-30T08:04:10.705Z,24.63
2019-03-30T08:06:40.779Z,21.40
2019-03-30T08:09:10.998Z,17.27
2019-03-30T08:11:41.144Z,18.83
2019-03-30T08:14:11.175Z,17.33
2019-03-30T08:16:41.268Z,16.60
2019-03-30T08:19:11.332Z,28.20
2019-03-30T08:21:41.631Z,17.17
2019-03-30T08:24:11.727Z,16.73
2019-03-30T08:26:41.867Z,20.50
2019-03-30T08:29:12.843Z,19.17
2019-03-30T08:31:42.976Z,21.10
2019-03-30T08:34:13.599Z,19.97
2019-03-30T08:36:44.168Z,24.90
2019-03-30T08:39:14.215Z,15.80
2019-03-30T08:41:44.608Z,15.70
2019-03-30T08:44:14.688Z,24.10
2019-03-30T08:46:44.779Z,21.70
2019-03-30T08:49:14.840Z,24.83
2019-03-30T08:51:44.787Z,19.13
2019-03-30T08:54:14.835Z,20.60
2019-03-30T08:56:45.162Z,21.13
2019-03-30T08:59:15.202Z,18.07
2019-03-30T09:01:45.333Z,17.73
2019-03-30T09:04:15.444Z,20.13
2019-03-30T09:06:46.018Z,17.20
2019-03-30T09:09:16.105Z,19.10
2019-03-30T09:11:46.180Z,18.67
2019-03-30T09:14:16.316Z,22.40
2019-03-30T09:16:46.513Z,19.97
2019-03-30T09:19:16.830Z,35.03
2019-03-30T09:21:46.922Z,20.83
2019-03-30T09:24:17.061Z,22.83
2019-03-30T09:26:47.067Z,34.40
2019-03-30T09:29:17.065Z,34.53
2019-03-30T09:31:47.237Z,17.53
2019-03-30T09:34:17.372Z,17.30
2019-03-30T09:36:47.443Z,18.87
2019-03-30T09:39:17.418Z,20.13
2019-03-30T09:41:47.393Z,18.67
2019-03-30T09:44:17.474Z,21.73
2019-03-30T09:46:47.537Z,17.80
2019-03-30T09:49:17.614Z,19.27
2019-03-30T09:51:47.785Z,16.60
2019-03-30T09:54:23.498Z,15.80
2019-03-30T09:56:49.552Z,22.80
2019-03-30T09:59:19.954Z,17.50
2019-03-30T10:01:50.415Z,13.43
2019-03-30T10:04:20.418Z,18.33
2019-03-30T10:06:50.460Z,18.43
2019-03-30T10:09:20.462Z,16.93
2019-03-30T10:11:50.501Z,19.43
2019-03-30T10:14:20.585Z,38.90
2019-03-30T10:16:50.659Z,23.27
2019-03-30T10:19:20.735Z,21.03
2019-03-30T10:21:50.799Z,21.80
2019-03-30T10:24:20.898Z,22.20
2019-03-30T10:26:50.997Z,20.70
2019-03-30T10:29:21.094Z,16.00
2019-03-30T10:31:51.459Z,23.47
2019-03-30T10:34:21.406Z,21.40
2019-03-30T10:36:51.416Z,24.10
2019-03-30T10:39:21.673Z,17.00
2019-03-30T10:41:51.794Z,19.23
2019-03-30T10:44:21.879Z,25.77
2019-03-30T10:46:52.022Z,25.93
2019-03-30T10:49:22.078Z,18.83
2019-03-30T10:51:54.349Z,21.07
2019-03-30T10:54:23.938Z,16.83
2019-03-30T10:56:54.007Z,22.33
2019-03-30T10:59:24.123Z,21.60
2019-03-30T11:01:54.121Z,11.70
2019-03-30T11:04:24.254Z,19.27
2019-03-30T11:06:54.346Z,13.73
2019-03-30T11:09:25.660Z,19.20
2019-03-30T11:11:55.773Z,18.67
2019-03-30T11:14:26.254Z,22.07
2019-03-30T11:16:56.331Z,24.80
2019-03-30T11:19:26.447Z,18.93
2019-03-30T11:21:56.533Z,16.07
2019-03-30T11:24:27.078Z,18.23
2019-03-30T11:26:57.232Z,18.33
2019-03-30T11:29:27.282Z,15.70
2019-03-30T11:31:57.456Z,20.03
2019-03-30T11:34:27.467Z,43.17
2019-03-30T11:36:57.609Z,33.00
2019-03-30T11:39:27.904Z,23.37
2019-03-30T11:41:58.166Z,17.70
2019-03-30T11:44:28.442Z,18.10
2019-03-30T11:46:58.443Z,14.50
2019-03-30T11:49:28.546Z,30.40
2019-03-30T11:51:58.554Z,12.10
2019-03-30T11:54:28.592Z,56.67
2019-03-30T11:56:58.629Z,60.80
2019-03-30T11:59:28.749Z,13.90
2019-03-30T12:01:58.781Z,22.40
2019-03-30T12:04:28.859Z,9.57
2019-03-30T12:06:58.835Z,12.70
2019-03-30T12:09:28.918Z,12.97
2019-03-30T12:11:58.971Z,13.43
2019-03-30T12:14:29.102Z,14.97
2019-03-30T12:16:59.184Z,15.10
2019-03-30T12:19:29.300Z,16.20
2019-03-30T12:21:59.397Z,8.83
2019-03-30T12:24:29.513Z,10.10
2019-03-30T12:26:59.589Z,14.33
2019-03-30T12:29:30.071Z,15.40
2019-03-30T12:32:00.117Z,31.77
2019-03-30T12:34:30.182Z,14.43
2019-03-30T12:37:01.104Z,11.93
2019-03-30T12:39:31.181Z,11.93
2019-03-30T12:42:01.213Z,24.83
2019-03-30T12:44:31.377Z,22.23
2019-03-30T12:47:01.539Z,16.10
2019-03-30T12:49:31.650Z,15.07
2019-03-30T12:52:01.612Z,16.07
2019-03-30T12:54:31.604Z,16.17
2019-03-30T12:57:01.589Z,14.63
2019-03-30T12:59:33.291Z,13.30
2019-03-30T13:02:03.328Z,13.63
2019-03-30T13:04:33.399Z,13.00
2019-03-30T13:07:03.884Z,28.87
2019-03-30T13:09:34.899Z,15.23
2019-03-30T13:12:05.334Z,13.00
2019-03-30T13:14:36.409Z,15.73
2019-03-30T13:17:06.885Z,17.73
2019-03-30T13:19:40.548Z,9.77
2019-03-30T13:22:10.789Z,14.83
2019-03-30T13:24:41.201Z,13.07
2019-03-30T13:27:12.962Z,16.00
2019-03-30T13:29:44.053Z,13.77
2019-03-30T13:32:14.146Z,14.73
2019-03-30T13:34:44.647Z,24.03
2019-03-30T13:37:18.910Z,23.40
2019-03-30T13:39:49.015Z,16.10
2019-03-30T13:42:19.057Z,13.50
2019-03-30T13:44:49.226Z,12.93
2019-03-30T13:47:19.711Z,13.73
2019-03-30T13:49:50.185Z,19.40
2019-03-30T13:52:20.287Z,12.97
2019-03-30T13:54:50.428Z,15.80
2019-03-30T13:57:20.783Z,19.03
2019-03-30T13:59:50.877Z,16.07
2019-03-30T14:02:21.058Z,12.30
2019-03-30T14:04:52.499Z,10.30
2019-03-30T14:07:22.868Z,12.10
2019-03-30T14:09:53.011Z,12.70
2019-03-30T14:12:23.242Z,12.20
2019-03-30T14:14:53.369Z,9.80
2019-03-30T14:17:23.572Z,9.00
2019-03-30T14:19:53.698Z,10.10
2019-03-30T14:22:23.854Z,11.37
2019-03-30T14:24:54.983Z,10.30
2019-03-30T14:27:25.034Z,11.17
2019-03-30T14:29:55.247Z,8.93
2019-03-30T14:32:25.289Z,10.07
2019-03-30T14:34:55.303Z,14.57
2019-03-30T14:37:25.407Z,14.10
2019-03-30T14:39:55.547Z,11.07
2019-03-30T14:42:25.626Z,10.83
2019-03-30T14:44:55.748Z,17.90
2019-03-30T14:47:25.894Z,32.70
2019-03-30T14:49:56.067Z,27.23
2019-03-30T14:52:26.088Z,14.43
2019-03-30T14:54:56.180Z,19.47
2019-03-30T14:57:26.201Z,10.23
2019-03-30T14:59:56.322Z,15.23
2019-03-30T15:02:26.614Z,16.83
2019-03-30T15:04:56.770Z,13.20
2019-03-30T15:07:27.039Z,18.50
2019-03-30T15:09:57.302Z,20.17
2019-03-30T15:12:27.312Z,15.97
2019-03-30T15:14:57.513Z,12.77
2019-03-30T15:17:27.538Z,13.30
2019-03-30T15:19:57.576Z,11.97
2019-03-30T15:22:28.827Z,18.73
2019-03-30T15:25:01.201Z,15.80
2019-03-30T15:27:31.296Z,15.00
2019-03-30T15:30:01.672Z,13.50
2019-03-30T15:32:31.740Z,12.60
2019-03-30T15:35:02.909Z,12.77
2019-03-30T15:37:32.954Z,12.73
2019-03-30T15:40:03.031Z,15.43
2019-03-30T15:42:33.145Z,13.53
2019-03-30T15:45:03.317Z,12.10
2019-03-30T15:47:33.441Z,14.97
2019-03-30T15:50:03.556Z,13.53
2019-03-30T15:52:33.996Z,12.03
2019-03-30T15:55:04.614Z,16.80
2019-03-30T15:57:34.733Z,17.17
2019-03-30T16:00:07.110Z,12.37
2019-03-30T16:02:37.430Z,13.13
2019-03-30T16:05:08.309Z,15.03
2019-03-30T16:07:38.583Z,14.03
2019-03-30T16:10:09.486Z,12.33
2019-03-30T16:12:40.405Z,13.73
2019-03-30T16:15:11.552Z,23.53
2019-03-30T16:17:41.670Z,18.43
2019-03-30T16:20:11.729Z,13.90
2019-03-30T16:22:41.919Z,16.30
2019-03-30T16:25:12.630Z,14.10
2019-03-30T16:27:43.071Z,13.80
2019-03-30T16:30:13.211Z,13.57
2019-03-30T16:32:43.351Z,12.17
2019-03-30T16:35:13.674Z,17.10
2019-03-30T16:37:43.750Z,13.27
2019-03-30T16:40:14.702Z,17.17
2019-03-30T16:42:44.721Z,17.43
2019-03-30T16:45:15.282Z,15.27
2019-03-30T16:47:45.319Z,15.10
2019-03-30T16:50:16.365Z,19.20
2019-03-30T16:52:46.507Z,16.53
2019-03-30T16:55:16.924Z,25.67
2019-03-30T16:57:46.994Z,13.60
2019-03-30T17:00:17.733Z,13.83
2019-03-30T17:02:47.810Z,22.63
2019-03-30T17:05:17.854Z,21.67
2019-03-30T17:07:47.868Z,18.73
2019-03-30T17:10:17.995Z,15.17
2019-03-30T17:12:48.136Z,15.70
2019-03-30T17:15:18.197Z,20.00
2019-03-30T17:17:48.280Z,19.13
2019-03-30T17:20:18.759Z,19.33
2019-03-30T17:22:48.841Z,16.03
2019-03-30T17:25:18.881Z,15.37
2019-03-30T17:27:58.179Z,15.13
2019-03-30T17:30:20.714Z,20.90
2019-03-30T17:32:50.937Z,19.93
2019-03-30T17:35:21.082Z,14.97
2019-03-30T17:37:51.138Z,26.17
2019-03-30T17:40:21.291Z,16.93
2019-03-30T17:42:51.375Z,14.40
2019-03-30T17:45:21.473Z,18.47
2019-03-30T17:47:51.688Z,19.17
2019-03-30T17:50:22.141Z,18.93
2019-03-30T17:52:52.354Z,26.00
2019-03-30T17:55:33.115Z,24.77
2019-03-30T17:57:54.358Z,19.30
2019-03-30T18:00:24.609Z,15.47
2019-03-30T18:02:55.225Z,19.80
2019-03-30T18:05:25.587Z,24.63
2019-03-30T18:07:56.830Z,19.70
2019-03-30T18:10:27.676Z,21.23
2019-03-30T18:12:57.811Z,22.43
2019-03-30T18:15:27.869Z,19.60
2019-03-30T18:17:58.014Z,21.70
2019-03-30T18:20:28.438Z,17.60
2019-03-30T18:23:01.347Z,18.90
2019-03-30T18:25:31.716Z,30.83
2019-03-30T18:28:01.794Z,20.83
2019-03-30T18:30:37.293Z,34.60
2019-03-30T18:33:08.841Z,28.23
2019-03-30T18:35:42.726Z,15.00
2019-03-30T18:38:13.355Z,34.73
2019-03-30T18:40:43.726Z,16.30
2019-03-30T18:43:13.984Z,20.00
2019-03-30T18:45:44.000Z,23.93
2019-03-30T18:48:23.321Z,23.47
2019-03-30T18:50:53.378Z,17.60
2019-03-30T18:53:23.414Z,21.00
2019-03-30T18:55:53.406Z,20.40
2019-03-30T18:58:23.662Z,20.03
2019-03-30T19:00:54.758Z,19.43
2019-03-30T19:03:24.998Z,19.40
2019-03-30T19:05:55.212Z,28.90
2019-03-30T19:08:26.253Z,18.67
2019-03-30T19:10:56.354Z,20.13
2019-03-30T19:13:26.538Z,26.97
2019-03-30T19:15:56.702Z,21.73
2019-03-30T19:18:26.863Z,18.77
2019-03-30T19:20:56.970Z,19.67
2019-03-30T19:23:27.100Z,18.53
2019-03-30T19:25:57.337Z,23.57
2019-03-30T19:28:27.449Z,17.90
2019-03-30T19:30:57.763Z,18.23
2019-03-30T19:33:28.290Z,16.90
2019-03-30T19:35:58.434Z,31.43
2019-03-30T19:38:28.592Z,20.67
2019-03-30T19:40:58.849Z,28.40
2019-03-30T19:43:29.038Z,34.13
2019-03-30T19:45:59.199Z,27.50
2019-03-30T19:48:29.825Z,27.07
2019-03-30T19:51:00.981Z,26.30
2019-03-30T19:53:31.184Z,32.30
2019-03-30T19:56:01.640Z,26.20
2019-03-30T19:58:31.971Z,33.23
2019-03-30T20:01:02.380Z,34.07
2019-03-30T20:03:32.717Z,22.70
2019-03-30T20:06:03.954Z,20.30
2019-03-30T20:08:34.129Z,31.53
2019-03-30T20:11:04.574Z,24.67
2019-03-30T20:13:35.796Z,26.27
2019-03-30T20:16:06.437Z,23.10
2019-03-30T20:18:36.582Z,20.27
2019-03-30T20:21:07.578Z,24.60
2019-03-30T20:23:38.298Z,30.30
2019-03-30T20:26:08.617Z,19.90
2019-03-30T20:28:38.913Z,21.20
2019-03-30T20:31:09.037Z,25.97
2019-03-30T20:33:39.239Z,31.70
2019-03-30T20:36:09.336Z,19.57
2019-03-30T20:38:39.765Z,24.10
2019-03-30T20:41:10.096Z,21.80
2019-03-30T20:43:40.539Z,27.63
2019-03-30T20:46:11.403Z,21.47
2019-03-30T20:48:41.560Z,16.07
2019-03-30T20:51:12.298Z,23.53
2019-03-30T20:53:42.427Z,28.10
2019-03-30T20:56:12.607Z,24.93
2019-03-30T20:58:42.835Z,30.20
2019-03-30T21:01:13.001Z,22.93
2019-03-30T21:03:43.365Z,28.40
2019-03-30T21:06:13.493Z,29.70
2019-03-30T21:08:43.856Z,50.20
2019-03-30T21:11:14.149Z,48.30
2019-03-30T21:13:44.382Z,42.27
2019-03-30T21:16:14.518Z,38.73
2019-03-30T21:18:44.777Z,30.73
2019-03-30T21:21:14.981Z,39.50
2019-03-30T21:23:45.121Z,41.37
2019-03-30T21:26:15.775Z,34.17
2019-03-30T21:28:46.855Z,22.23
2019-03-30T21:31:17.321Z,35.07
2019-03-30T21:33:47.463Z,30.73
2019-03-30T21:36:17.794Z,23.80
2019-03-30T21:38:47.912Z,26.47
2019-03-30T21:41:17.970Z,25.93
2019-03-30T21:43:48.454Z,26.47
2019-03-30T21:46:18.501Z,20.80
2019-03-30T21:48:48.577Z,26.27
2019-03-30T21:51:18.680Z,28.10
2019-03-30T21:53:48.785Z,26.00
2019-03-30T21:56:18.790Z,25.60
2019-03-30T21:58:48.935Z,28.40
2019-03-30T22:01:19.018Z,24.07
2019-03-30T22:03:49.124Z,21.80
2019-03-30T22:06:19.184Z,44.93
2019-03-30T22:08:50.518Z,24.93
2019-03-30T22:11:22.677Z,28.83
2019-03-30T22:13:52.889Z,30.50
2019-03-30T22:16:22.918Z,34.60
2019-03-30T22:18:53.067Z,31.50
2019-03-30T22:21:23.207Z,29.07
2019-03-30T22:23:53.919Z,29.27
2019-03-30T22:26:24.951Z,47.63
2019-03-30T22:28:55.042Z,26.60
2019-03-30T22:31:25.139Z,33.00
2019-03-30T22:33:55.183Z,31.63
2019-03-30T22:36:25.376Z,43.07
2019-03-30T22:38:55.507Z,34.17
2019-03-30T22:41:25.874Z,30.73
2019-03-30T22:43:55.999Z,38.57
2019-03-30T22:46:26.084Z,31.50
2019-03-30T22:48:56.262Z,29.13
2019-03-30T22:51:26.435Z,30.90
2019-03-30T22:53:56.464Z,41.87
2019-03-30T22:56:26.436Z,35.47
2019-03-30T22:58:56.532Z,38.97
2019-03-30T23:01:26.877Z,42.17
2019-03-30T23:03:56.854Z,46.00
2019-03-30T23:06:26.950Z,36.43
2019-03-30T23:08:57.420Z,34.47
2019-03-30T23:11:27.463Z,38.17
2019-03-30T23:13:57.515Z,38.90
2019-03-30T23:16:27.607Z,45.17
2019-03-30T23:18:57.701Z,46.30
2019-03-30T23:21:28.038Z,44.87
2019-03-30T23:23:58.050Z,40.23
2019-03-30T23:26:28.169Z,42.60
2019-03-30T23:28:59.614Z,50.63
2019-03-30T23:31:30.011Z,48.10
2019-03-30T23:34:00.311Z,43.63
2019-03-30T23:36:30.342Z,47.87
2019-03-30T23:39:00.346Z,33.07
2019-03-30T23:41:30.417Z,37.87
2019-03-30T23:44:00.322Z,34.20
2019-03-30T23:46:30.425Z,34.80
2019-03-30T23:49:00.851Z,26.63
2019-03-30T23:51:30.897Z,34.10
2019-03-30T23:54:00.890Z,32.53
2019-03-30T23:56:32.603Z,35.03
2019-03-30T23:59:02.618Z,34.70
